Tuesday, February 20, 2018, 10:39 AM EST
Back to Local

KMTN, Baltimore / Martin

Location: Middle River, MD, United States Lat: 39.333
Local Time: 10:39 AM EST (15:39 GMT) Lon: -76.417
Time Zone: US/Eastern Elev: 22 ft

Show me the last for .
Show Coded

Time T Td Feel RH Dir Speed Gust Alt SLP Vis Weather Sky Remarks
2018-02-20 10:20 54 54 - 100 90° 8 - 30.38 - 5 BR BKN011 BKN150 None
2018-02-20 09:50 52 52 - 100 120° 6 - 30.38 - 2 BR SCT009 BKN080 None
2018-02-20 08:45 48 48 - 100 - Calm - 30.39 - 2 BR OVC005 None
2018-02-20 07:45 48 48 - 100 - Calm - 30.39 - 0 BR OVC005 None
2018-02-20 06:45 46 46 - 100 - Calm - 30.37 - 0 BR OVC003 None
2018-02-20 05:45 46 46 - 100 - Calm - 30.35 - 0 FG OVC003 None
2018-02-20 05:30 46 46 - 100 - Calm - 30.35 - 0 FG OVC003 None
2018-02-20 05:15 46 46 - 100 - Calm - 30.35 - 0 FG OVC003 None
2018-02-20 04:57 46 46 45 100 100° 3 - 30.33 - 0 FG OVC003 None
2018-02-20 04:36 46 46 45 100 110° 3 - 30.33 - 0 FG OVC003 None
2018-02-20 04:15 46 46 44 100 130° 5 - 30.33 - 0 FG OVC003 None
2018-02-20 03:57 45 45 43 100 130° 3 - 30.33 - 0 FG OVC003 None
2018-02-20 03:36 46 46 - 100 - Calm - 30.33 - 0 FG OVC003 None
2018-02-20 03:15 46 46 - 100 - Calm - 30.34 - 0 FG OVC003 None
2018-02-20 02:57 46 46 45 100 130° 3 - 30.34 - 0 FG OVC003 None
2018-02-20 02:36 46 46 44 100 120° 5 - 30.34 - 0 BR OVC003 None
2018-02-20 02:15 46 46 45 100 130° 3 - 30.34 - 1 BR OVC003 None
2018-02-20 01:57 45 45 42 100 130° 5 - 30.35 - 0 FG OVC003 None
2018-02-20 01:36 45 45 - 100 - Calm - 30.35 - 0 FG OVC003 None
2018-02-20 01:15 45 45 43 100 120° 3 - 30.35 - 0 FG OVC003 None
2018-02-20 00:57 45 45 42 100 110° 5 - 30.35 - 0 FG OVC003 None
2018-02-20 00:36 46 46 - 100 - Calm - 30.36 - 0 BR OVC003 None
2018-02-20 00:15 46 46 44 100 140° 5 - 30.36 - 1 BR OVC003 None
2018-02-19 23:57 46 46 44 100 140° 5 - 30.36 - 2 BR OVC003 None
2018-02-19 23:36 45 45 43 100 160° 3 - 30.36 - 0 BR OVC003 None
2018-02-19 23:15 43 43 - 100 - Calm - 30.36 - 0 FG OVC003 None
2018-02-19 22:57 43 43 - 100 - Calm - 30.36 - 0 FG OVC003 None
2018-02-19 22:36 43 43 - 100 - Calm - 30.36 - 0 FG OVC003 None
2018-02-19 22:15 43 43 - 100 - Calm - 30.37 - 0 FG OVC003 None
2018-02-19 21:45 45 45 - 100 - Calm - 30.37 - 0 FG OVC003 None
2018-02-19 20:45 45 45 - 100 - Calm - 30.37 - 0 FG OVC003 None
2018-02-19 19:45 43 43 - 100 - Calm - 30.37 - 0 FG OVC003 None
2018-02-19 19:10 43 43 - 100 - Calm - 30.36 - 0 FG OVC003 None
2018-02-19 18:45 43 43 - 100 - Calm - 30.37 - 0 BR OVC003 None
2018-02-19 17:45 43 43 - 100 - Calm - 30.38 - 1 BR OVC003 None
2018-02-19 16:45 45 45 - 100 - Calm - 30.37 - 1 BR OVC003 None
2018-02-19 15:45 43 43 - 100 - Calm - 30.40 - 1 BR OVC004 None
2018-02-19 14:54 43 43 41 100 120° 3 - 30.39 - 1 BR OVC009 None
2018-02-19 14:35 43 43 41 100 130° 3 - 30.41 - 2 BR BKN008 OVC011 None
2018-02-19 13:45 43 43 39 100 100° 7 - 30.41 - 7 OVC011 None
2018-02-19 12:45 43 43 38 100 130° 8 - 30.44 - 7 OVC015 None
2018-02-19 11:45 43 41 40 93 120° 5 - 30.48 - 5 BR OVC019 None
2018-02-19 11:20 43 41 40 93 130° 5 - 30.49 - 3 BR OVC021 None
2018-02-19 10:45 41 39 38 93 120° 5 - 30.50 - 10 BKN026 OVC031 None

Support USWX by starting your Amazon purchase here.